createdAt,value
2019-04-29T00:01:35.450Z,11.57
2019-04-29T00:04:05.499Z,11.27
2019-04-29T00:06:35.794Z,11.90
2019-04-29T00:09:10.208Z,12.73
2019-04-29T00:11:40.196Z,11.30
2019-04-29T00:14:10.443Z,11.87
2019-04-29T00:16:42.115Z,11.00
2019-04-29T00:19:13.623Z,10.67
2019-04-29T00:21:43.620Z,11.30
2019-04-29T00:24:13.544Z,9.70
2019-04-29T00:26:43.548Z,7.53
2019-04-29T00:29:13.477Z,9.60
2019-04-29T00:31:43.608Z,9.67
2019-04-29T00:34:13.551Z,10.10
2019-04-29T00:36:45.535Z,11.63
2019-04-29T00:39:23.087Z,7.43
2019-04-29T00:42:03.439Z,9.97
2019-04-29T00:44:33.368Z,7.30
2019-04-29T00:47:03.452Z,6.87
2019-04-29T00:49:33.497Z,7.70
2019-04-29T00:52:03.585Z,8.73
2019-04-29T00:54:35.081Z,7.30
2019-04-29T00:57:05.163Z,7.30
2019-04-29T00:59:35.193Z,6.93
2019-04-29T01:02:06.252Z,9.40
2019-04-29T01:04:36.303Z,8.23
2019-04-29T01:07:06.613Z,6.40
2019-04-29T01:09:36.555Z,8.67
2019-04-29T01:12:07.995Z,6.57
2019-04-29T01:14:38.029Z,7.03
2019-04-29T01:17:08.118Z,7.93
2019-04-29T01:19:39.851Z,6.20
2019-04-29T01:22:09.937Z,9.57
2019-04-29T01:24:41.073Z,5.80
2019-04-29T01:27:12.745Z,7.20
2019-04-29T01:29:44.114Z,7.03
2019-04-29T01:32:14.102Z,6.23
2019-04-29T01:34:51.785Z,7.00
2019-04-29T01:37:24.264Z,8.03
2019-04-29T01:40:14.222Z,6.70
2019-04-29T01:42:45.007Z,5.90
2019-04-29T01:45:14.969Z,7.43
2019-04-29T01:47:44.967Z,6.20
2019-04-29T01:50:14.932Z,5.63
2019-04-29T01:52:45.021Z,5.33
2019-04-29T01:55:15.194Z,6.07
2019-04-29T01:57:45.281Z,5.07
2019-04-29T02:00:15.643Z,4.17
2019-04-29T02:02:45.632Z,4.50
2019-04-29T02:05:15.597Z,6.63
2019-04-29T02:07:45.595Z,5.73
2019-04-29T02:10:17.230Z,6.07
2019-04-29T02:12:47.316Z,5.73
2019-04-29T02:15:17.277Z,6.00
2019-04-29T02:17:47.274Z,5.73
2019-04-29T02:20:17.340Z,6.90
2019-04-29T02:22:51.909Z,7.83
2019-04-29T02:25:40.016Z,7.37
2019-04-29T02:28:10.110Z,10.47
2019-04-29T02:30:48.459Z,7.33
2019-04-29T02:33:18.589Z,5.53
2019-04-29T02:35:48.622Z,9.73
2019-04-29T02:38:26.265Z,8.83
2019-04-29T02:40:57.889Z,7.20
2019-04-29T02:43:32.638Z,6.37
2019-04-29T02:46:02.672Z,6.93
2019-04-29T02:48:34.636Z,6.63
2019-04-29T02:51:04.613Z,7.17
2019-04-29T02:53:34.588Z,8.80
2019-04-29T02:56:04.621Z,9.60
2019-04-29T02:58:45.348Z,7.00
2019-04-29T03:01:17.057Z,7.30
2019-04-29T03:03:48.641Z,7.80
2019-04-29T03:06:18.558Z,8.60
2019-04-29T03:08:48.766Z,8.67
2019-04-29T03:11:20.888Z,8.23
2019-04-29T03:13:50.995Z,8.50
2019-04-29T03:16:20.924Z,9.80
2019-04-29T03:18:52.587Z,10.17
2019-04-29T03:21:30.218Z,11.27
2019-04-29T03:24:00.313Z,9.73
2019-04-29T03:26:30.347Z,11.67
2019-04-29T03:29:00.339Z,11.37
2019-04-29T03:31:30.285Z,12.83
2019-04-29T03:34:00.548Z,10.67
2019-04-29T03:36:30.470Z,13.97
2019-04-29T03:39:00.570Z,9.60
2019-04-29T03:41:30.606Z,12.37
2019-04-29T03:44:00.620Z,12.50
2019-04-29T03:46:31.055Z,15.50
2019-04-29T03:49:01.055Z,12.20
2019-04-29T03:51:31.100Z,14.47
2019-04-29T03:54:18.059Z,13.37
2019-04-29T03:56:48.036Z,16.17
2019-04-29T03:59:18.026Z,14.53
2019-04-29T04:01:55.794Z,16.23
2019-04-29T04:04:43.966Z,12.70
2019-04-29T04:07:27.696Z,13.93
2019-04-29T04:09:57.704Z,12.87
2019-04-29T04:12:27.654Z,12.07
2019-04-29T04:14:57.653Z,15.67
2019-04-29T04:17:29.298Z,15.43
2019-04-29T04:19:59.262Z,12.63
2019-04-29T04:22:30.875Z,13.57
2019-04-29T04:25:00.865Z,15.87
2019-04-29T04:27:30.901Z,15.87
2019-04-29T04:30:00.914Z,20.67
2019-04-29T04:32:30.957Z,16.17
2019-04-29T04:35:00.951Z,16.63
2019-04-29T04:37:30.996Z,18.57
2019-04-29T04:40:00.987Z,18.60
2019-04-29T04:42:31.040Z,20.57
2019-04-29T04:45:01.136Z,20.77
2019-04-29T04:47:31.189Z,20.63
2019-04-29T04:50:01.176Z,19.83
2019-04-29T04:52:31.121Z,20.17
2019-04-29T04:55:01.129Z,21.20
2019-04-29T04:57:31.311Z,20.47
2019-04-29T05:00:01.458Z,25.20
2019-04-29T05:02:31.559Z,20.93
2019-04-29T05:05:01.636Z,25.67
2019-04-29T05:07:31.735Z,22.10
2019-04-29T05:10:01.784Z,20.87
2019-04-29T05:12:31.865Z,26.63
2019-04-29T05:15:01.860Z,22.83
2019-04-29T05:17:31.924Z,24.03
2019-04-29T05:20:01.872Z,26.23
2019-04-29T05:22:31.948Z,23.50
2019-04-29T05:25:01.900Z,23.50
2019-04-29T05:27:31.979Z,18.13
2019-04-29T05:30:02.054Z,27.43
2019-04-29T05:32:32.107Z,24.33
2019-04-29T05:35:06.641Z,24.20
2019-04-29T05:37:50.194Z,21.07
2019-04-29T05:40:21.819Z,23.47
2019-04-29T05:42:52.643Z,26.03
2019-04-29T05:45:31.237Z,29.50
2019-04-29T05:48:05.641Z,26.87
2019-04-29T05:50:53.594Z,25.87
2019-04-29T05:53:28.104Z,25.60
2019-04-29T05:55:58.300Z,26.27
2019-04-29T05:58:28.383Z,24.03
2019-04-29T06:01:00.007Z,26.20
2019-04-29T06:03:33.622Z,26.20
2019-04-29T06:06:01.672Z,27.53
2019-04-29T06:08:34.594Z,19.30
2019-04-29T06:11:03.529Z,28.43
2019-04-29T06:13:33.622Z,28.30
2019-04-29T06:16:03.674Z,25.27
2019-04-29T06:18:33.666Z,26.00
2019-04-29T06:21:09.423Z,32.03
2019-04-29T06:23:35.607Z,27.73
2019-04-29T06:26:05.651Z,30.57
2019-04-29T06:28:35.748Z,28.33
2019-04-29T06:31:05.688Z,34.50
2019-04-29T06:33:35.800Z,29.20
2019-04-29T06:36:06.042Z,34.47
2019-04-29T06:38:36.298Z,25.83
2019-04-29T06:41:09.817Z,33.50
2019-04-29T06:43:37.934Z,27.13
2019-04-29T06:46:07.995Z,28.27
2019-04-29T06:48:37.975Z,33.17
2019-04-29T06:51:08.023Z,36.37
2019-04-29T06:53:51.277Z,34.30
2019-04-29T06:56:21.253Z,34.97
2019-04-29T06:58:51.255Z,36.37
2019-04-29T07:01:22.636Z,34.07
2019-04-29T07:03:55.812Z,32.23
2019-04-29T07:06:24.311Z,31.00
2019-04-29T07:08:54.304Z,35.80
2019-04-29T07:11:24.276Z,26.97
2019-04-29T07:13:57.543Z,29.30
2019-04-29T07:16:27.200Z,39.03
2019-04-29T07:18:57.975Z,27.27
2019-04-29T07:21:27.958Z,30.50
2019-04-29T07:23:58.060Z,30.20
2019-04-29T07:26:28.032Z,32.20
2019-04-29T07:28:58.045Z,31.60
2019-04-29T07:31:32.724Z,27.30
2019-04-29T07:33:59.836Z,31.43
2019-04-29T07:36:29.809Z,28.30
2019-04-29T07:38:59.824Z,32.43
2019-04-29T07:41:29.806Z,29.03
2019-04-29T07:43:59.899Z,31.43
2019-04-29T07:46:43.372Z,31.23
2019-04-29T07:49:06.244Z,29.50
2019-04-29T07:51:40.632Z,33.83
2019-04-29T07:54:11.176Z,33.57
2019-04-29T07:56:42.418Z,28.90
2019-04-29T07:59:11.572Z,30.13
2019-04-29T08:01:42.952Z,32.10
2019-04-29T08:04:12.952Z,27.53
2019-04-29T08:06:44.846Z,28.33
2019-04-29T08:09:14.985Z,27.73
2019-04-29T08:11:46.723Z,32.10
2019-04-29T08:14:18.822Z,27.57
2019-04-29T08:16:48.871Z,31.83
2019-04-29T08:19:18.912Z,28.90
2019-04-29T08:21:49.733Z,32.83
2019-04-29T08:24:20.598Z,37.10
2019-04-29T08:26:50.564Z,28.97
2019-04-29T08:29:20.617Z,30.60
2019-04-29T08:31:51.773Z,31.57
2019-04-29T08:34:23.138Z,26.27
2019-04-29T08:36:54.098Z,33.20
2019-04-29T08:39:25.133Z,32.73
2019-04-29T08:41:58.849Z,33.03
2019-04-29T08:44:29.723Z,32.77
2019-04-29T08:47:22.952Z,28.50
2019-04-29T08:49:51.262Z,30.87
2019-04-29T08:52:21.205Z,32.07
2019-04-29T08:54:55.256Z,35.03
2019-04-29T08:57:22.959Z,31.97
2019-04-29T08:59:52.968Z,31.23
2019-04-29T09:02:34.511Z,31.67
2019-04-29T09:04:54.648Z,31.20
2019-04-29T09:07:24.741Z,34.50
2019-04-29T09:09:56.182Z,32.13
2019-04-29T09:12:29.294Z,32.50
2019-04-29T09:14:58.328Z,31.93
2019-04-29T09:17:28.414Z,30.57
2019-04-29T09:19:58.427Z,30.93
2019-04-29T09:22:29.971Z,32.67
2019-04-29T09:25:21.351Z,29.90
2019-04-29T09:27:56.238Z,30.93
2019-04-29T09:30:24.778Z,35.67
2019-04-29T09:32:54.711Z,32.93
2019-04-29T09:35:24.716Z,30.17
2019-04-29T09:37:58.445Z,27.93
2019-04-29T09:40:30.942Z,31.07
2019-04-29T09:43:15.170Z,25.80
2019-04-29T09:45:46.000Z,33.10
2019-04-29T09:48:16.039Z,31.53
2019-04-29T09:50:46.147Z,30.23
2019-04-29T09:53:16.190Z,31.43
2019-04-29T09:55:46.182Z,31.27
2019-04-29T09:58:17.370Z,27.97
2019-04-29T10:00:52.550Z,30.93
2019-04-29T10:03:24.097Z,25.73
2019-04-29T10:06:12.549Z,25.77
2019-04-29T10:08:42.771Z,25.40
2019-04-29T10:11:12.871Z,24.70
2019-04-29T10:13:43.453Z,28.93
2019-04-29T10:16:21.131Z,29.97
2019-04-29T10:18:52.780Z,32.33
2019-04-29T10:21:23.572Z,26.10
2019-04-29T10:23:53.650Z,24.10
2019-04-29T10:26:23.668Z,24.83
2019-04-29T10:29:01.323Z,27.93
2019-04-29T10:31:31.417Z,32.67
2019-04-29T10:34:01.366Z,23.37
2019-04-29T10:36:31.354Z,33.33
2019-04-29T10:39:02.969Z,24.93
2019-04-29T10:41:36.002Z,26.17
2019-04-29T10:44:24.318Z,22.67
2019-04-29T10:46:58.720Z,21.40
2019-04-29T10:49:34.880Z,26.07
2019-04-29T10:52:04.957Z,25.60
2019-04-29T10:54:35.213Z,21.33
2019-04-29T10:57:05.612Z,27.80
2019-04-29T10:59:40.721Z,21.97
2019-04-29T11:02:30.711Z,28.40
2019-04-29T11:05:11.863Z,21.57
2019-04-29T11:07:41.869Z,24.03
2019-04-29T11:10:25.401Z,21.83
2019-04-29T11:12:54.829Z,17.90
2019-04-29T11:15:29.401Z,27.13
2019-04-29T11:17:59.908Z,24.33
2019-04-29T11:20:30.196Z,23.87
2019-04-29T11:23:01.878Z,24.33
2019-04-29T11:25:51.345Z,25.33
2019-04-29T11:28:21.651Z,32.47
2019-04-29T11:30:51.604Z,25.53
2019-04-29T11:33:41.687Z,25.60
2019-04-29T11:36:22.461Z,29.07
2019-04-29T11:38:52.564Z,19.87
2019-04-29T11:41:28.670Z,26.17
2019-04-29T11:43:58.774Z,20.20
2019-04-29T11:46:28.834Z,22.50
2019-04-29T11:49:00.403Z,20.90
2019-04-29T11:51:34.080Z,23.73
2019-04-29T11:54:03.651Z,20.83
2019-04-29T11:56:35.291Z,24.63
2019-04-29T11:59:10.244Z,23.13
2019-04-29T12:01:51.820Z,22.20
2019-04-29T12:04:33.491Z,22.07
2019-04-29T12:07:02.042Z,21.47
2019-04-29T12:09:32.299Z,20.13
2019-04-29T12:12:02.505Z,21.63
2019-04-29T12:14:37.978Z,23.10
2019-04-29T12:17:15.777Z,22.30
2019-04-29T12:19:47.455Z,21.27
2019-04-29T12:22:28.219Z,21.27
2019-04-29T12:24:49.322Z,19.33
2019-04-29T12:27:20.118Z,22.47
2019-04-29T12:29:53.900Z,17.83
2019-04-29T12:32:27.160Z,23.17
2019-04-29T12:34:58.851Z,22.67
2019-04-29T12:37:30.994Z,14.03
2019-04-29T12:40:21.982Z,15.53
2019-04-29T12:43:11.167Z,17.50
2019-04-29T12:45:43.625Z,17.30
2019-04-29T12:48:24.265Z,22.03
2019-04-29T12:50:45.586Z,16.30
2019-04-29T12:53:15.645Z,21.77
2019-04-29T12:55:53.524Z,16.43
2019-04-29T12:58:23.897Z,17.90
2019-04-29T13:00:59.866Z,16.90
2019-04-29T13:03:47.412Z,17.97
2019-04-29T13:06:39.007Z,18.50
2019-04-29T13:09:18.295Z,14.67
2019-04-29T13:11:52.138Z,18.07
2019-04-29T13:14:21.995Z,18.53
2019-04-29T13:16:59.460Z,14.00
2019-04-29T13:19:31.594Z,17.07
2019-04-29T13:22:01.769Z,13.37
2019-04-29T13:24:31.707Z,13.93
2019-04-29T13:27:15.220Z,15.20
2019-04-29T13:29:36.155Z,17.13
2019-04-29T13:32:05.272Z,17.70
2019-04-29T13:34:36.787Z,15.07
2019-04-29T13:37:08.260Z,16.93
2019-04-29T13:39:40.344Z,15.63
2019-04-29T13:42:15.300Z,14.73
2019-04-29T13:44:50.446Z,14.30
2019-04-29T13:47:15.280Z,24.67
2019-04-29T13:49:49.378Z,17.20
2019-04-29T13:52:18.722Z,12.77
2019-04-29T13:54:48.678Z,14.13
2019-04-29T13:57:19.288Z,14.63
2019-04-29T13:59:54.067Z,12.87
2019-04-29T14:02:31.373Z,24.83
2019-04-29T14:05:02.353Z,18.57
2019-04-29T14:07:32.467Z,14.73
2019-04-29T14:10:02.515Z,14.20
2019-04-29T14:12:56.982Z,16.30
2019-04-29T14:15:07.937Z,19.13
2019-04-29T14:17:38.354Z,15.47
2019-04-29T14:20:10.688Z,13.37
2019-04-29T14:22:40.192Z,16.33
2019-04-29T14:25:13.293Z,17.60
2019-04-29T14:27:42.239Z,16.07
2019-04-29T14:30:15.966Z,13.97
2019-04-29T14:32:49.652Z,14.73
2019-04-29T14:35:19.809Z,15.90
2019-04-29T14:37:55.445Z,15.97
2019-04-29T14:40:21.548Z,14.67
2019-04-29T14:42:57.965Z,13.97
2019-04-29T14:45:29.625Z,16.30
2019-04-29T14:48:19.879Z,15.73
2019-04-29T14:50:54.152Z,14.67
2019-04-29T14:53:24.127Z,13.73
2019-04-29T14:55:53.566Z,16.30
2019-04-29T14:58:23.681Z,19.77
2019-04-29T15:00:55.222Z,20.63
2019-04-29T15:03:26.838Z,43.30
2019-04-29T15:05:56.961Z,19.17
2019-04-29T15:08:27.225Z,16.30
2019-04-29T15:10:57.223Z,14.77
2019-04-29T15:13:27.315Z,14.10
2019-04-29T15:16:05.324Z,18.10
2019-04-29T15:18:49.098Z,17.83
2019-04-29T15:21:31.484Z,16.33
2019-04-29T15:23:52.498Z,16.83
2019-04-29T15:26:22.537Z,15.83
2019-04-29T15:28:52.638Z,19.07
2019-04-29T15:31:24.574Z,14.10
2019-04-29T15:33:54.779Z,15.57
2019-04-29T15:36:24.794Z,14.17
2019-04-29T15:39:08.654Z,16.77
2019-04-29T15:41:31.062Z,13.23
2019-04-29T15:44:07.196Z,16.60
2019-04-29T15:46:45.540Z,13.13
2019-04-29T15:49:02.192Z,14.90
2019-04-29T15:51:32.246Z,13.90
2019-04-29T15:54:02.294Z,14.00
2019-04-29T15:56:33.772Z,14.80
2019-04-29T15:59:08.771Z,17.53
2019-04-29T16:01:40.773Z,18.20
2019-04-29T16:04:09.609Z,15.20
2019-04-29T16:06:41.438Z,46.43
2019-04-29T16:09:16.059Z,31.27
2019-04-29T16:11:50.442Z,27.17
2019-04-29T16:14:22.103Z,14.70
2019-04-29T16:16:52.044Z,21.37
2019-04-29T16:19:22.062Z,16.17
2019-04-29T16:21:52.121Z,17.90
2019-04-29T16:24:27.004Z,55.23
2019-04-29T16:26:53.985Z,53.83
2019-04-29T16:29:24.085Z,23.33
2019-04-29T16:31:54.937Z,43.97
2019-04-29T16:34:25.922Z,27.67
2019-04-29T16:36:55.879Z,37.43
2019-04-29T16:39:26.994Z,28.57
2019-04-29T16:42:15.115Z,38.27
2019-04-29T16:44:45.505Z,23.80
2019-04-29T16:50:28.525Z,46.57
2019-04-29T16:54:12.678Z,67.87
2019-04-29T16:56:16.019Z,80.50
2019-04-29T16:58:47.455Z,21.10
2019-04-29T17:01:18.065Z,24.67
2019-04-29T17:03:53.323Z,46.90
2019-04-29T17:06:25.018Z,52.20
2019-04-29T17:09:09.537Z,113.33
2019-04-29T17:11:50.383Z,91.60
2019-04-29T17:14:29.817Z,47.73
2019-04-29T17:17:10.381Z,29.37
2019-04-29T17:19:40.403Z,49.20
2019-04-29T17:22:25.449Z,29.83
2019-04-29T17:24:43.001Z,17.93
2019-04-29T17:27:26.681Z,42.33
2019-04-29T17:30:08.050Z,35.63
2019-04-29T17:32:44.254Z,19.93
2019-04-29T17:35:12.937Z,29.40
2019-04-29T17:37:43.139Z,37.60
2019-04-29T17:40:14.580Z,39.10
2019-04-29T17:42:46.276Z,31.03
2019-04-29T17:45:27.163Z,23.40
2019-04-29T17:47:54.080Z,56.57
2019-04-29T17:50:38.626Z,32.73
2019-04-29T17:53:08.449Z,18.37
2019-04-29T17:55:41.005Z,49.43
2019-04-29T17:58:25.895Z,24.37
2019-04-29T18:00:59.499Z,32.13
2019-04-29T18:03:46.212Z,39.43
2019-04-29T18:06:24.711Z,107.27
2019-04-29T18:08:57.225Z,45.47
2019-04-29T18:11:27.268Z,34.50
2019-04-29T18:13:58.139Z,26.53
2019-04-29T18:16:29.927Z,44.07
2019-04-29T18:19:01.998Z,22.63
2019-04-29T18:21:51.855Z,24.97
2019-04-29T18:24:25.270Z,23.60
2019-04-29T18:26:56.876Z,62.67
2019-04-29T18:29:26.991Z,71.07
2019-04-29T18:32:00.526Z,65.83
2019-04-29T18:34:29.356Z,20.70
2019-04-29T18:37:01.643Z,51.63
2019-04-29T18:39:32.617Z,63.47
2019-04-29T18:42:04.961Z,44.83
2019-04-29T18:44:35.780Z,96.17
2019-04-29T18:47:31.246Z,227.90
2019-04-29T18:50:00.664Z,92.37
2019-04-29T18:52:28.502Z,111.00
2019-04-29T18:55:22.784Z,30.57
2019-04-29T18:58:21.388Z,18.30
2019-04-29T19:01:05.477Z,33.67
2019-04-29T19:03:48.631Z,33.80
2019-04-29T19:06:46.096Z,26.67
2019-04-29T19:09:20.766Z,25.40
2019-04-29T19:11:55.598Z,16.20
2019-04-29T19:14:28.538Z,23.30
2019-04-29T19:17:06.981Z,35.73
2019-04-29T19:19:45.220Z,23.00
2019-04-29T19:22:20.598Z,28.37
2019-04-29T19:24:55.904Z,19.30
2019-04-29T19:27:37.486Z,18.17
2019-04-29T19:30:20.733Z,24.33
2019-04-29T19:32:48.368Z,33.17
2019-04-29T19:35:21.948Z,17.27
2019-04-29T19:37:57.882Z,19.63
2019-04-29T19:40:40.500Z,33.63
2019-04-29T19:43:06.169Z,17.20
2019-04-29T19:45:36.839Z,19.00
2019-04-29T19:48:07.004Z,20.30
2019-04-29T19:50:38.660Z,17.80
2019-04-29T19:53:19.204Z,17.83
2019-04-29T19:56:01.477Z,14.87
2019-04-29T20:01:30.852Z,15.57
2019-04-29T20:04:01.489Z,11.93
2019-04-29T20:06:50.037Z,13.37
2019-04-29T20:09:33.929Z,22.93
2019-04-29T20:12:19.191Z,13.87
2019-04-29T20:19:01.764Z,16.47
2019-04-29T20:21:31.170Z,16.30
2019-04-29T20:24:03.129Z,21.60
2019-04-29T20:26:35.979Z,17.60
2019-04-29T20:29:08.939Z,12.17
2019-04-29T20:32:00.680Z,15.40
2019-04-29T20:34:37.838Z,16.13
2019-04-29T20:37:19.825Z,17.30
2019-04-29T20:39:57.210Z,13.27
2019-04-29T20:42:40.374Z,15.27
2019-04-29T20:45:12.305Z,16.73
2019-04-29T20:47:50.169Z,21.10
2019-04-29T20:50:22.372Z,16.00
2019-04-29T20:53:15.647Z,19.13
2019-04-29T20:55:48.307Z,16.87
2019-04-29T20:58:31.530Z,15.23
2019-04-29T21:01:10.223Z,14.93
2019-04-29T21:03:53.783Z,62.40
2019-04-29T21:06:24.210Z,62.97
2019-04-29T21:09:41.726Z,19.30
2019-04-29T21:11:56.676Z,22.87
2019-04-29T21:14:34.338Z,18.43
2019-04-29T21:17:11.124Z,14.27
2019-04-29T21:19:42.937Z,36.97
2019-04-29T21:26:09.479Z,18.90
2019-04-29T21:28:41.780Z,18.53
2019-04-29T21:31:15.962Z,41.97
2019-04-29T21:33:45.477Z,14.77
2019-04-29T21:36:26.499Z,18.33
2019-04-29T21:39:01.650Z,18.63
2019-04-29T21:41:29.436Z,15.57
2019-04-29T21:44:00.375Z,57.87
2019-04-29T21:46:30.500Z,15.57
2019-04-29T21:49:05.055Z,20.10
2019-04-29T21:51:32.983Z,18.87
2019-04-29T21:54:03.125Z,15.70
2019-04-29T21:56:33.119Z,15.27
2019-04-29T21:59:09.275Z,18.77
2019-04-29T22:01:37.461Z,14.03
2019-04-29T22:04:06.687Z,12.67
2019-04-29T22:06:36.800Z,28.47
2019-04-29T22:09:08.738Z,17.50
2019-04-29T22:11:43.207Z,15.50
2019-04-29T22:14:15.570Z,13.83
2019-04-29T22:16:47.507Z,12.03
2019-04-29T22:19:17.698Z,16.17
2019-04-29T22:21:47.750Z,13.63
2019-04-29T22:24:21.811Z,11.77
2019-04-29T22:26:49.692Z,10.10
2019-04-29T22:29:19.640Z,14.37
2019-04-29T22:31:49.659Z,15.07
2019-04-29T22:34:20.225Z,13.97
2019-04-29T22:36:52.702Z,12.07
2019-04-29T22:39:26.703Z,12.40
2019-04-29T22:42:10.839Z,15.10
2019-04-29T22:44:40.906Z,35.20
2019-04-29T22:47:11.022Z,35.43
2019-04-29T22:49:41.103Z,36.80
2019-04-29T22:52:11.197Z,28.37
2019-04-29T22:54:41.267Z,13.03
2019-04-29T22:57:11.360Z,17.87
2019-04-29T22:59:41.420Z,12.07
2019-04-29T23:02:11.840Z,16.13
2019-04-29T23:04:41.913Z,10.37
2019-04-29T23:07:12.228Z,18.80
2019-04-29T23:09:46.392Z,19.83
2019-04-29T23:12:18.391Z,44.63
2019-04-29T23:14:46.190Z,29.93
2019-04-29T23:17:16.279Z,19.73
2019-04-29T23:19:50.646Z,26.77
2019-04-29T23:22:27.299Z,22.77
2019-04-29T23:24:58.938Z,26.53
2019-04-29T23:27:29.045Z,23.80
2019-04-29T23:29:59.520Z,18.87
2019-04-29T23:32:29.908Z,18.37
2019-04-29T23:35:01.669Z,18.60
2019-04-29T23:37:31.779Z,17.77
2019-04-29T23:40:01.852Z,19.07
2019-04-29T23:42:31.963Z,20.83
2019-04-29T23:45:02.041Z,17.90
2019-04-29T23:47:32.158Z,24.97
2019-04-29T23:50:02.230Z,16.60
2019-04-29T23:52:32.332Z,16.07
2019-04-29T23:55:02.413Z,20.60
2019-04-29T23:57:35.730Z,15.63
